Time;durP1;ratioP1;P1;durP2;ratioP2;P2;SDS_P1;SDS_P2;PMS_P1;PMS_P2;Temp;Humidity;BMP_temperature;BMP_pressure;BME280_temperature;BME280_humidity;BME280_pressure;Samples;Min_cycle;Max_cycle;Signal;HPM_P1;HPM_P2
2023/02/24 00:01:23;;;;;;;5.47;3.57;;;;;;;;;;5095108;28;20201;-84
2023/02/24 00:03:52;;;;;;;4.27;3.57;;;;;;;;;;5109044;28;20195;-84
2023/02/24 00:06:19;;;;;;;3.93;3.53;;;;;;;;;;5114437;28;20689;-84
2023/02/24 00:08:46;;;;;;;3.50;3.07;;;;;;;;;;5114868;28;20202;-84
2023/02/24 00:11:15;;;;;;;4.90;3.33;;;;;;;;;;5106387;28;20306;-85
2023/02/24 00:13:45;;;;;;;7.33;2.87;;;;;;;;;;5094844;28;20253;-84
2023/02/24 00:16:14;;;;;;;6.17;3.47;;;;;;;;;;5103051;28;20705;-84
2023/02/24 00:18:40;;;;;;;4.77;3.17;;;;;;;;;;5114414;28;20269;-84
2023/02/24 00:21:12;;;;;;;6.93;3.67;;;;;;;;;;5105499;28;20204;-84
2023/02/24 00:23:39;;;;;;;6.17;3.40;;;;;;;;;;5097582;28;20658;-85
2023/02/24 00:26:07;;;;;;;7.53;3.57;;;;;;;;;;5104266;28;20273;-84
2023/02/24 00:28:34;;;;;;;3.87;2.47;;;;;;;;;;5093870;28;20200;-84
2023/02/24 00:31:05;;;;;;;4.90;4.07;;;;;;;;;;5093868;28;20231;-84
2023/02/24 00:33:33;;;;;;;4.17;3.37;;;;;;;;;;5111677;28;20272;-84
2023/02/24 00:36:12;;;;;;;5.10;2.60;;;;;;;;;;5114160;28;20202;-85
2023/02/24 00:38:43;;;;;;;3.27;2.70;;;;;;;;;;5100809;28;20579;-84
2023/02/24 00:41:11;;;;;;;2.67;2.47;;;;;;;;;;5113051;28;20290;-84
2023/02/24 00:43:38;;;;;;;4.13;2.80;;;;;;;;;;5093897;28;20281;-84
2023/02/24 00:46:10;;;;;;;5.93;2.90;;;;;;;;;;5107022;28;20637;-84
2023/02/24 00:48:39;;;;;;;3.97;2.80;;;;;;;;;;5102619;28;20196;-85
2023/02/24 00:51:09;;;;;;;7.27;4.47;;;;;;;;;;5099983;28;20320;-85
2023/02/24 00:53:38;;;;;;;6.73;4.43;;;;;;;;;;5113928;28;20213;-85
2023/02/24 00:56:06;;;;;;;5.23;3.63;;;;;;;;;;5099935;28;20211;-84
2023/02/24 00:58:34;;;;;;;4.97;2.63;;;;;;;;;;5113664;28;20239;-84
2023/02/24 01:01:02;;;;;;;5.97;2.83;;;;;;;;;;5113236;28;20655;-84
2023/02/24 01:03:29;;;;;;;4.00;2.87;;;;;;;;;;5103047;28;20291;-84
2023/02/24 01:06:01;;;;;;;3.37;3.07;;;;;;;;;;5111062;28;20579;-85
2023/02/24 01:08:28;;;;;;;4.97;2.63;;;;;;;;;;5101020;28;20204;-84
2023/02/24 01:13:38;;;;;;;3.20;2.83;;;;;;;;;;5092651;28;20645;-84
2023/02/24 01:16:06;;;;;;;6.03;3.97;;;;;;;;;;5112981;28;20566;-85
2023/02/24 01:18:33;;;;;;;5.90;4.30;;;;;;;;;;5099616;28;20637;-85
2023/02/24 01:21:00;;;;;;;3.40;2.77;;;;;;;;;;5101396;28;20200;-85
2023/02/24 01:23:27;;;;;;;4.50;2.70;;;;;;;;;;5112071;28;20238;-84
2023/02/24 01:25:57;;;;;;;6.60;3.07;;;;;;;;;;5092838;28;20234;-85
2023/02/24 01:28:25;;;;;;;7.10;3.23;;;;;;;;;;5106950;28;20235;-85
2023/02/24 01:30:52;;;;;;;5.70;3.30;;;;;;;;;;5101562;28;20276;-85
2023/02/24 01:33:20;;;;;;;6.07;4.10;;;;;;;;;;5102795;28;20295;-85
2023/02/24 01:35:47;;;;;;;7.43;4.57;;;;;;;;;;5112487;28;20195;-85
2023/02/24 01:38:14;;;;;;;7.63;5.07;;;;;;;;;;5110288;28;20631;-84
2023/02/24 01:40:41;;;;;;;4.13;3.10;;;;;;;;;;5092656;28;20262;-85
2023/02/24 01:43:10;;;;;;;5.37;3.73;;;;;;;;;;5092715;28;20204;-84
2023/02/24 01:45:40;;;;;;;5.30;2.93;;;;;;;;;;5092746;28;20197;-85
2023/02/24 01:48:08;;;;;;;6.20;2.90;;;;;;;;;;5110734;28;20219;-85
2023/02/24 01:50:37;;;;;;;4.13;3.73;;;;;;;;;;5100800;28;20205;-85
2023/02/24 01:53:07;;;;;;;4.43;3.10;;;;;;;;;;5097403;28;20621;-85
2023/02/24 01:55:36;;;;;;;3.63;2.70;;;;;;;;;;5112511;28;20753;-85
2023/02/24 01:58:06;;;;;;;4.40;3.10;;;;;;;;;;5112489;28;20704;-86
2023/02/24 02:00:36;;;;;;;4.07;2.77;;;;;;;;;;5112131;28;20203;-85
2023/02/24 02:03:15;;;;;;;4.57;2.97;;;;;;;;;;5105904;28;20200;-85
2023/02/24 02:05:44;;;;;;;4.97;2.93;;;;;;;;;;5107484;28;20207;-85
2023/02/24 02:08:11;;;;;;;6.90;3.00;;;;;;;;;;5103513;28;20236;-85
2023/02/24 02:10:39;;;;;;;2.83;2.53;;;;;;;;;;5094688;28;20235;-84
2023/02/24 02:13:06;;;;;;;3.17;2.80;;;;;;;;;;5111664;28;20227;-84
2023/02/24 02:15:39;;;;;;;5.77;3.00;;;;;;;;;;5112239;28;20204;-84
2023/02/24 02:18:12;;;;;;;4.43;2.93;;;;;;;;;;5112048;28;20681;-85
2023/02/24 02:20:55;;;;;;;4.20;3.33;;;;;;;;;;5098023;28;20232;-85
2023/02/24 02:23:54;;;;;;;3.30;2.90;;;;;;;;;;5111419;28;20208;-84
2023/02/24 02:26:53;;;;;;;7.37;3.10;;;;;;;;;;5103833;28;20196;-84
2023/02/24 02:29:52;;;;;;;3.90;2.70;;;;;;;;;;5082218;28;20674;-83
2023/02/24 02:33:00;;;;;;;4.60;2.97;;;;;;;;;;5098745;28;20657;-84
2023/02/24 02:35:36;;;;;;;8.50;3.37;;;;;;;;;;5074810;28;20200;-84
2023/02/24 02:38:11;;;;;;;3.00;2.70;;;;;;;;;;5106385;28;20282;-85
2023/02/24 02:40:40;;;;;;;4.27;3.20;;;;;;;;;;5111457;28;20203;-83
2023/02/24 02:43:14;;;;;;;7.03;3.70;;;;;;;;;;5094780;28;20723;-84
2023/02/24 02:45:46;;;;;;;6.03;2.80;;;;;;;;;;5102979;28;20207;-84
2023/02/24 02:48:17;;;;;;;7.93;3.47;;;;;;;;;;5098241;28;20708;-84
2023/02/24 02:50:48;;;;;;;8.23;3.43;;;;;;;;;;5111429;28;20241;-84
2023/02/24 02:53:19;;;;;;;8.23;2.83;;;;;;;;;;5111184;28;20732;-84
2023/02/24 02:55:48;;;;;;;6.03;3.30;;;;;;;;;;5097233;28;20277;-84
2023/02/24 02:58:18;;;;;;;4.07;2.80;;;;;;;;;;5099282;28;20203;-84
2023/02/24 03:00:57;;;;;;;3.70;3.30;;;;;;;;;;5096097;28;20207;-85
2023/02/24 03:03:26;;;;;;;6.63;4.57;;;;;;;;;;5102148;28;20203;-84
2023/02/24 03:05:57;;;;;;;15.17;9.83;;;;;;;;;;5111214;28;20203;-85
2023/02/24 03:08:26;;;;;;;7.13;5.57;;;;;;;;;;5111486;28;20299;-85
2023/02/24 03:10:54;;;;;;;8.10;4.73;;;;;;;;;;5110956;28;20282;-82
2023/02/24 03:13:26;;;;;;;7.37;4.40;;;;;;;;;;5103923;28;20593;-84
2023/02/24 03:15:54;;;;;;;6.50;4.90;;;;;;;;;;5103287;28;20265;-85
2023/02/24 03:18:27;;;;;;;4.93;3.90;;;;;;;;;;5104688;28;20192;-85
2023/02/24 03:20:59;;;;;;;4.53;3.50;;;;;;;;;;5091173;28;20212;-84
2023/02/24 03:23:30;;;;;;;5.17;3.87;;;;;;;;;;5104700;28;20802;-84
2023/02/24 03:26:00;;;;;;;6.47;3.67;;;;;;;;;;5091208;28;20679;-84
2023/02/24 03:28:32;;;;;;;7.53;4.37;;;;;;;;;;5102906;28;20683;-84
2023/02/24 03:31:03;;;;;;;5.60;4.83;;;;;;;;;;5107741;28;20263;-84
2023/02/24 03:33:34;;;;;;;6.00;4.30;;;;;;;;;;5115540;28;20230;-84
2023/02/24 03:36:02;;;;;;;3.93;3.50;;;;;;;;;;5106855;28;20709;-84
2023/02/24 03:38:31;;;;;;;6.00;4.27;;;;;;;;;;5115348;28;20226;-83
2023/02/24 03:40:58;;;;;;;6.80;3.67;;;;;;;;;;5100322;28;20728;-84
2023/02/24 03:43:28;;;;;;;5.00;4.40;;;;;;;;;;5111324;28;20222;-84
2023/02/24 03:45:55;;;;;;;3.73;3.40;;;;;;;;;;5111636;28;20211;-85
2023/02/24 03:48:23;;;;;;;8.23;4.07;;;;;;;;;;5104186;28;20762;-84
2023/02/24 03:50:51;;;;;;;7.40;4.93;;;;;;;;;;5115114;28;20195;-84
2023/02/24 03:53:32;;;;;;;8.93;4.10;;;;;;;;;;5105545;28;20255;-84
2023/02/24 03:56:05;;;;;;;7.17;4.40;;;;;;;;;;5112816;28;20674;-84
2023/02/24 03:58:41;;;;;;;7.33;4.00;;;;;;;;;;5102829;28;20586;-85
2023/02/24 04:01:12;;;;;;;7.60;4.67;;;;;;;;;;5094360;28;20200;-84
2023/02/24 04:03:47;;;;;;;7.53;4.83;;;;;;;;;;5109896;28;20631;-84
2023/02/24 04:06:18;;;;;;;6.20;4.87;;;;;;;;;;5105418;28;20275;-83
2023/02/24 04:08:52;;;;;;;6.87;4.23;;;;;;;;;;5097361;28;20670;-83
2023/02/24 04:11:25;;;;;;;4.67;4.07;;;;;;;;;;5111761;28;20252;-80
2023/02/24 04:13:57;;;;;;;9.23;4.90;;;;;;;;;;5114446;28;20238;-82
2023/02/24 04:16:28;;;;;;;8.67;4.90;;;;;;;;;;5104908;28;20643;-80
2023/02/24 04:18:58;;;;;;;8.33;5.23;;;;;;;;;;5112171;28;20597;-80
2023/02/24 04:21:27;;;;;;;11.73;5.47;;;;;;;;;;5114460;28;20208;-80
2023/02/24 04:23:55;;;;;;;6.17;5.10;;;;;;;;;;5114767;28;20401;-80
2023/02/24 04:26:26;;;;;;;8.07;4.93;;;;;;;;;;5102385;28;20755;-80
2023/02/24 04:28:53;;;;;;;7.70;5.57;;;;;;;;;;5108177;28;20212;-80
2023/02/24 04:31:21;;;;;;;8.60;5.67;;;;;;;;;;5094024;28;20211;-79
2023/02/24 04:33:49;;;;;;;9.07;6.23;;;;;;;;;;5112020;28;20403;-86
2023/02/24 04:36:16;;;;;;;10.47;5.90;;;;;;;;;;5114623;28;20686;-83
2023/02/24 04:38:44;;;;;;;8.77;5.47;;;;;;;;;;5114643;28;20280;-86
2023/02/24 04:41:19;;;;;;;11.50;5.80;;;;;;;;;;5114791;28;20299;-86
2023/02/24 04:43:47;;;;;;;10.90;6.00;;;;;;;;;;5114586;28;20199;-85
2023/02/24 04:46:13;;;;;;;8.27;5.40;;;;;;;;;;5103100;28;20212;-85
2023/02/24 04:48:40;;;;;;;8.23;5.43;;;;;;;;;;5112281;28;20210;-85
2023/02/24 04:51:07;;;;;;;8.73;5.37;;;;;;;;;;5114505;28;20581;-85
2023/02/24 04:53:36;;;;;;;8.53;5.67;;;;;;;;;;5108058;28;20216;-85
2023/02/24 04:56:07;;;;;;;6.97;5.43;;;;;;;;;;5106771;28;20302;-85
2023/02/24 04:58:36;;;;;;;9.17;5.87;;;;;;;;;;5113819;28;20207;-85
2023/02/24 05:01:09;;;;;;;6.93;5.57;;;;;;;;;;5100811;28;20208;-86
2023/02/24 05:03:36;;;;;;;7.07;5.70;;;;;;;;;;5114096;28;20200;-85
2023/02/24 05:06:05;;;;;;;6.50;5.40;;;;;;;;;;5114147;28;20659;-88
2023/02/24 05:08:32;;;;;;;9.47;5.77;;;;;;;;;;5114299;28;20290;-82
2023/02/24 05:11:02;;;;;;;8.83;6.27;;;;;;;;;;5111558;28;20252;-84
2023/02/24 05:13:30;;;;;;;7.37;4.93;;;;;;;;;;5100887;28;20609;-83
2023/02/24 05:16:04;;;;;;;7.23;5.47;;;;;;;;;;5099542;28;20207;-85
2023/02/24 05:18:35;;;;;;;5.30;4.80;;;;;;;;;;5112783;28;20200;-85
2023/02/24 05:23:50;;;;;;;9.53;6.67;;;;;;;;;;5101020;28;20202;-82
2023/02/24 05:26:19;;;;;;;9.43;6.70;;;;;;;;;;5100377;28;20215;-82
2023/02/24 05:28:48;;;;;;;7.93;7.13;;;;;;;;;;5113787;28;20238;-82
2023/02/24 05:31:18;;;;;;;10.10;7.07;;;;;;;;;;5113639;28;20263;-82
2023/02/24 05:33:48;;;;;;;10.77;6.40;;;;;;;;;;5113344;28;20231;-84
2023/02/24 05:36:17;;;;;;;16.43;11.13;;;;;;;;;;5113057;28;20681;-82
2023/02/24 05:38:44;;;;;;;11.70;8.07;;;;;;;;;;5102492;28;20196;-81
2023/02/24 05:41:15;;;;;;;9.90;7.27;;;;;;;;;;5110840;28;20294;-82
2023/02/24 05:43:46;;;;;;;18.40;13.67;;;;;;;;;;5101252;28;20219;-82
2023/02/24 05:46:15;;;;;;;9.40;7.37;;;;;;;;;;5106853;28;20208;-83
2023/02/24 05:48:42;;;;;;;7.90;6.27;;;;;;;;;;5105282;28;20264;-83
2023/02/24 05:51:11;;;;;;;7.40;5.43;;;;;;;;;;5097688;28;20199;-83
2023/02/24 05:53:40;;;;;;;6.07;5.27;;;;;;;;;;5098390;28;20723;-85
2023/02/24 05:56:07;;;;;;;12.07;9.63;;;;;;;;;;5091794;28;20621;-82
2023/02/24 05:58:35;;;;;;;8.17;6.13;;;;;;;;;;5092357;28;20285;-83
2023/02/24 06:01:14;;;;;;;7.43;5.57;;;;;;;;;;5099849;28;20562;-83
2023/02/24 06:03:46;;;;;;;7.20;6.20;;;;;;;;;;5110488;28;20286;-83
2023/02/24 06:06:13;;;;;;;5.53;5.03;;;;;;;;;;5092411;28;20208;-82
2023/02/24 06:08:48;;;;;;;7.27;5.93;;;;;;;;;;5105876;28;20257;-83
2023/02/24 06:11:15;;;;;;;5.00;4.37;;;;;;;;;;5091850;28;20199;-83
2023/02/24 06:13:46;;;;;;;7.17;5.20;;;;;;;;;;5105890;28;20223;-83
2023/02/24 06:16:14;;;;;;;6.90;4.60;;;;;;;;;;5091678;28;20192;-84
2023/02/24 06:18:43;;;;;;;5.20;4.70;;;;;;;;;;5094022;28;20271;-83
2023/02/24 06:21:11;;;;;;;6.47;4.90;;;;;;;;;;5103136;28;20667;-83
2023/02/24 06:23:38;;;;;;;7.30;5.17;;;;;;;;;;5091427;28;20226;-83
2023/02/24 06:26:11;;;;;;;5.83;5.23;;;;;;;;;;5091675;28;20208;-82
2023/02/24 06:28:39;;;;;;;4.90;4.40;;;;;;;;;;5108943;28;20585;-83
2023/02/24 06:31:06;;;;;;;5.10;4.37;;;;;;;;;;5101051;28;20713;-83
2023/02/24 06:33:33;;;;;;;6.30;5.13;;;;;;;;;;5091822;28;20783;-84
2023/02/24 06:36:02;;;;;;;4.63;4.23;;;;;;;;;;5102553;28;20207;-84
2023/02/24 06:38:29;;;;;;;5.87;4.20;;;;;;;;;;5111660;28;20199;-84
2023/02/24 06:40:57;;;;;;;5.03;4.63;;;;;;;;;;5100159;28;20740;-83
2023/02/24 06:43:24;;;;;;;7.30;6.33;;;;;;;;;;5109676;28;20199;-82
2023/02/24 06:45:51;;;;;;;6.50;5.80;;;;;;;;;;5111779;28;20208;-83
2023/02/24 06:48:17;;;;;;;20.90;17.73;;;;;;;;;;5111633;28;20223;-83
2023/02/24 06:50:44;;;;;;;11.20;8.77;;;;;;;;;;5111514;28;20633;-83
2023/02/24 06:53:15;;;;;;;7.93;5.73;;;;;;;;;;5106311;28;20345;-84
2023/02/24 06:55:47;;;;;;;6.10;4.97;;;;;;;;;;5103966;28;20584;-83
2023/02/24 06:58:16;;;;;;;6.07;5.47;;;;;;;;;;5111697;28;20584;-83
2023/02/24 07:00:55;;;;;;;8.80;6.67;;;;;;;;;;5111244;28;20199;-83
2023/02/24 07:03:23;;;;;;;6.93;5.93;;;;;;;;;;5103598;28;20263;-83
2023/02/24 07:05:53;;;;;;;6.47;5.17;;;;;;;;;;5089759;28;20200;-83
2023/02/24 07:08:22;;;;;;;6.40;5.27;;;;;;;;;;5091249;28;20206;-80
2023/02/24 07:10:54;;;;;;;6.60;5.47;;;;;;;;;;5091126;28;20208;-81
2023/02/24 07:13:23;;;;;;;7.13;6.17;;;;;;;;;;5102470;28;20727;-81
2023/02/24 07:15:50;;;;;;;23.37;19.47;;;;;;;;;;5106021;28;20677;-81
2023/02/24 07:18:17;;;;;;;22.73;20.37;;;;;;;;;;5091043;28;20778;-81
2023/02/24 07:20:46;;;;;;;15.87;13.33;;;;;;;;;;5109862;28;20210;-84
2023/02/24 07:23:13;;;;;;;15.60;12.40;;;;;;;;;;5098940;28;20200;-83
2023/02/24 07:25:45;;;;;;;8.23;7.03;;;;;;;;;;5110470;28;20195;-81
2023/02/24 07:28:12;;;;;;;10.47;7.03;;;;;;;;;;5111121;28;20746;-83
2023/02/24 07:30:39;;;;;;;8.37;6.93;;;;;;;;;;5103766;28;20265;-81
2023/02/24 07:33:06;;;;;;;7.70;6.33;;;;;;;;;;5092166;28;20215;-81
2023/02/24 07:35:34;;;;;;;14.83;6.20;;;;;;;;;;5110815;28;20619;-81
2023/02/24 07:38:03;;;;;;;8.27;5.90;;;;;;;;;;5109817;28;20302;-81
2023/02/24 07:40:32;;;;;;;7.27;5.93;;;;;;;;;;5090606;28;20204;-81
2023/02/24 07:43:00;;;;;;;8.00;6.87;;;;;;;;;;5092989;28;20211;-82
2023/02/24 07:45:28;;;;;;;8.87;6.07;;;;;;;;;;5111158;28;20199;-82
2023/02/24 07:47:55;;;;;;;7.60;6.03;;;;;;;;;;5094299;28;20243;-81
2023/02/24 07:50:22;;;;;;;8.37;6.07;;;;;;;;;;5100407;28;20203;-81
2023/02/24 07:52:50;;;;;;;11.17;6.90;;;;;;;;;;5107641;28;20205;-81
2023/02/24 07:55:17;;;;;;;8.03;6.37;;;;;;;;;;5090510;28;20744;-82
2023/02/24 07:57:50;;;;;;;8.63;5.53;;;;;;;;;;5094483;28;20203;-81
2023/02/24 08:00:19;;;;;;;6.80;5.53;;;;;;;;;;5110618;28;20677;-82
2023/02/24 08:02:48;;;;;;;8.20;5.40;;;;;;;;;;5091706;28;20196;-81
2023/02/24 08:05:16;;;;;;;6.57;4.80;;;;;;;;;;5090711;28;20283;-81
2023/02/24 08:07:48;;;;;;;8.17;4.90;;;;;;;;;;5090272;28;20701;-81
2023/02/24 08:10:24;;;;;;;7.60;4.30;;;;;;;;;;5090507;28;20302;-83
2023/02/24 08:12:53;;;;;;;5.50;3.87;;;;;;;;;;5103759;28;20253;-81
2023/02/24 08:15:25;;;;;;;6.93;4.33;;;;;;;;;;5104997;28;20214;-81
2023/02/24 08:17:53;;;;;;;4.90;4.20;;;;;;;;;;5114663;28;20200;-82
2023/02/24 08:20:24;;;;;;;6.00;4.30;;;;;;;;;;5114728;28;20268;-82
2023/02/24 08:22:53;;;;;;;3.97;3.37;;;;;;;;;;5104758;28;20196;-82
2023/02/24 08:25:21;;;;;;;4.70;4.00;;;;;;;;;;5097299;28;20294;-81
2023/02/24 08:27:54;;;;;;;5.00;3.93;;;;;;;;;;5114178;28;20204;-81
2023/02/24 08:30:23;;;;;;;8.37;4.23;;;;;;;;;;5095938;28;20203;-81
2023/02/24 08:32:55;;;;;;;6.13;4.70;;;;;;;;;;5105959;28;20207;-81
2023/02/24 08:35:24;;;;;;;8.10;4.10;;;;;;;;;;5100841;28;20666;-81
2023/02/24 08:37:53;;;;;;;6.27;4.33;;;;;;;;;;5100503;28;20208;-81
2023/02/24 08:40:49;;;;;;;5.00;3.40;;;;;;;;;;5101022;28;20202;-81
2023/02/24 08:43:19;;;;;;;6.50;5.40;;;;;;;;;;5110001;28;20279;-81
2023/02/24 08:45:50;;;;;;;7.30;4.77;;;;;;;;;;5093961;28;20226;-80
2023/02/24 08:48:25;;;;;;;8.67;5.50;;;;;;;;;;5112528;28;20310;-81
2023/02/24 08:50:54;;;;;;;6.87;5.03;;;;;;;;;;5113603;28;20286;-81
2023/02/24 08:53:20;;;;;;;7.17;4.83;;;;;;;;;;5101782;28;20279;-80
2023/02/24 08:55:50;;;;;;;6.43;5.23;;;;;;;;;;5098883;28;20204;-81
2023/02/24 08:58:18;;;;;;;9.77;5.03;;;;;;;;;;5102111;28;20389;-81
2023/02/24 09:00:52;;;;;;;12.60;6.13;;;;;;;;;;5113525;28;20196;-81
2023/02/24 09:03:28;;;;;;;8.27;4.60;;;;;;;;;;5104051;28;20208;-80
2023/02/24 09:06:03;;;;;;;9.53;5.70;;;;;;;;;;5111062;28;20259;-80
2023/02/24 09:08:32;;;;;;;8.30;5.53;;;;;;;;;;5113699;28;20217;-80
2023/02/24 09:11:00;;;;;;;6.80;4.53;;;;;;;;;;5113454;28;20749;-81
2023/02/24 09:13:31;;;;;;;9.83;5.33;;;;;;;;;;5101328;28;20262;-80
2023/02/24 09:16:00;;;;;;;7.37;5.47;;;;;;;;;;5106600;28;20584;-80
2023/02/24 09:18:37;;;;;;;8.00;5.87;;;;;;;;;;5107226;28;20203;-81
2023/02/24 09:22:04;;;;;;;8.90;6.50;;;;;;;;;;5101455;28;20674;-81
2023/02/24 09:24:06;;;;;;;10.33;6.40;;;;;;;;;;5099204;28;20203;-81
2023/02/24 09:26:41;;;;;;;8.87;5.63;;;;;;;;;;5113028;28;20634;-81
2023/02/24 09:29:32;;;;;;;11.53;6.73;;;;;;;;;;5100502;28;20195;-80
2023/02/24 09:32:03;;;;;;;10.50;6.30;;;;;;;;;;5099395;28;20591;-80
2023/02/24 09:34:32;;;;;;;8.03;6.20;;;;;;;;;;5112957;28;20261;-80
2023/02/24 09:37:01;;;;;;;10.47;6.43;;;;;;;;;;5113132;28;20218;-80
2023/02/24 09:39:29;;;;;;;11.47;6.03;;;;;;;;;;5099503;28;20291;-80
2023/02/24 09:42:27;;;;;;;11.20;6.40;;;;;;;;;;5099425;28;20263;-80
2023/02/24 09:44:51;;;;;;;12.40;7.27;;;;;;;;;;5095436;28;20251;-80
2023/02/24 09:47:29;;;;;;;11.53;6.57;;;;;;;;;;5103650;28;20231;-80
2023/02/24 09:49:59;;;;;;;10.53;7.90;;;;;;;;;;5099554;28;20621;-83
2023/02/24 09:52:38;;;;;;;13.87;8.10;;;;;;;;;;5098869;28;20204;-83
2023/02/24 09:55:23;;;;;;;8.77;6.60;;;;;;;;;;5101274;28;20223;-81
2023/02/24 10:00:42;;;;;;;14.93;7.37;;;;;;;;;;5098149;28;20215;-81
2023/02/24 10:03:40;;;;;;;14.50;7.47;;;;;;;;;;5100969;28;20276;-80
2023/02/24 10:06:14;;;;;;;9.77;7.53;;;;;;;;;;5092855;28;20207;-83
2023/02/24 10:08:44;;;;;;;18.17;7.87;;;;;;;;;;5106016;28;20289;-81
2023/02/24 10:11:12;;;;;;;14.83;8.23;;;;;;;;;;5092176;28;20196;-80
2023/02/24 10:13:45;;;;;;;11.17;7.83;;;;;;;;;;5105619;28;20198;-80
2023/02/24 10:16:22;;;;;;;17.77;9.03;;;;;;;;;;5092472;28;20214;-80
2023/02/24 10:18:59;;;;;;;15.27;10.43;;;;;;;;;;5094862;28;20203;-80
2023/02/24 10:21:47;;;;;;;18.70;9.20;;;;;;;;;;5100770;28;20241;-80
2023/02/24 10:24:21;;;;;;;12.67;8.33;;;;;;;;;;5099644;28;20207;-80
2023/02/24 10:26:53;;;;;;;9.83;8.27;;;;;;;;;;5098090;28;20204;-83
2023/02/24 10:29:28;;;;;;;11.67;7.87;;;;;;;;;;5103329;28;20674;-79
2023/02/24 10:32:05;;;;;;;12.13;7.77;;;;;;;;;;5091737;28;20196;-80
2023/02/24 10:34:33;;;;;;;17.80;9.50;;;;;;;;;;5104693;28;20287;-80
2023/02/24 10:37:05;;;;;;;15.90;9.17;;;;;;;;;;5092458;28;20200;-80
2023/02/24 10:39:32;;;;;;;11.77;7.33;;;;;;;;;;5091697;28;20625;-81
2023/02/24 10:42:15;;;;;;;16.27;7.80;;;;;;;;;;5098518;28;20207;-80
2023/02/24 10:44:51;;;;;;;13.67;6.70;;;;;;;;;;5096264;28;20666;-80
2023/02/24 10:47:19;;;;;;;9.13;7.83;;;;;;;;;;5091833;28;20307;-80
2023/02/24 10:49:56;;;;;;;12.90;7.60;;;;;;;;;;5091452;28;20265;-81
2023/02/24 10:52:35;;;;;;;15.13;8.13;;;;;;;;;;5103750;28;20203;-80
2023/02/24 10:55:07;;;;;;;12.07;8.33;;;;;;;;;;5098976;28;20219;-80
2023/02/24 10:57:45;;;;;;;12.30;6.37;;;;;;;;;;5111452;28;20696;-80
2023/02/24 11:00:31;;;;;;;14.73;7.63;;;;;;;;;;5111481;28;20588;-83
2023/02/24 11:03:08;;;;;;;10.07;7.03;;;;;;;;;;5098138;28;20199;-80
2023/02/24 11:05:43;;;;;;;10.13;7.93;;;;;;;;;;5110624;28;20207;-80
2023/02/24 11:08:35;;;;;;;12.60;7.33;;;;;;;;;;5091553;28;20199;-81
2023/02/24 11:11:07;;;;;;;12.97;8.60;;;;;;;;;;5091452;28;20291;-80
2023/02/24 11:19:05;;;;;;;11.53;7.23;;;;;;;;;;5109691;28;20276;-83
2023/02/24 11:21:33;;;;;;;11.87;7.57;;;;;;;;;;5098319;28;20760;-83
2023/02/24 11:24:01;;;;;;;9.80;6.53;;;;;;;;;;5097438;28;20252;-80
2023/02/24 11:26:34;;;;;;;10.97;7.10;;;;;;;;;;5097366;28;20196;-80
2023/02/24 11:29:16;;;;;;;8.87;7.00;;;;;;;;;;5098758;28;20196;-80
2023/02/24 11:31:53;;;;;;;14.57;7.57;;;;;;;;;;5107527;28;20200;-80
2023/02/24 11:34:27;;;;;;;10.40;7.33;;;;;;;;;;5090810;28;20220;-80
2023/02/24 11:37:01;;;;;;;10.13;7.73;;;;;;;;;;5096671;28;20206;-80
2023/02/24 11:39:43;;;;;;;10.73;7.73;;;;;;;;;;5097855;28;20204;-81
2023/02/24 11:42:15;;;;;;;15.53;9.10;;;;;;;;;;5101447;28;20204;-81
2023/02/24 11:44:47;;;;;;;14.37;8.20;;;;;;;;;;5091015;28;20223;-81
2023/02/24 11:47:17;;;;;;;12.17;7.63;;;;;;;;;;5101159;28;20255;-83
2023/02/24 11:49:46;;;;;;;13.97;6.23;;;;;;;;;;5111066;28;20260;-83
2023/02/24 11:52:16;;;;;;;12.70;6.67;;;;;;;;;;5102326;28;20200;-80
2023/02/24 11:54:49;;;;;;;13.77;6.93;;;;;;;;;;5100741;28;20219;-80
2023/02/24 11:57:19;;;;;;;11.07;6.90;;;;;;;;;;5114932;28;20581;-81
2023/02/24 11:59:49;;;;;;;9.43;7.07;;;;;;;;;;5094737;28;20286;-80
2023/02/24 12:02:19;;;;;;;11.27;7.10;;;;;;;;;;5109448;28;20208;-81
2023/02/24 12:04:57;;;;;;;12.73;7.37;;;;;;;;;;5106514;28;20222;-80
2023/02/24 12:07:27;;;;;;;12.63;7.87;;;;;;;;;;5111720;28;20747;-80
2023/02/24 12:09:59;;;;;;;11.70;7.47;;;;;;;;;;5103663;28;20722;-81
2023/02/24 12:12:31;;;;;;;14.37;7.83;;;;;;;;;;5094484;28;20211;-80
2023/02/24 12:15:00;;;;;;;18.27;10.27;;;;;;;;;;5105255;28;20254;-81
2023/02/24 12:17:32;;;;;;;20.40;9.90;;;;;;;;;;5095785;28;20208;-80
2023/02/24 12:20:00;;;;;;;13.47;9.10;;;;;;;;;;5094202;28;20747;-81
2023/02/24 12:22:31;;;;;;;10.07;7.90;;;;;;;;;;5100318;28;20256;-81
2023/02/24 12:24:59;;;;;;;13.20;8.90;;;;;;;;;;5113897;28;20661;-82
2023/02/24 12:27:41;;;;;;;15.67;8.13;;;;;;;;;;5114465;28;20675;-81
2023/02/24 12:30:32;;;;;;;10.00;6.70;;;;;;;;;;5098532;28;20314;-81
2023/02/24 12:33:07;;;;;;;9.50;6.43;;;;;;;;;;5107391;28;20211;-81
2023/02/24 12:35:39;;;;;;;8.60;6.30;;;;;;;;;;5113794;28;20230;-81
2023/02/24 12:38:19;;;;;;;11.93;6.83;;;;;;;;;;5114490;28;20203;-81
2023/02/24 12:40:53;;;;;;;12.77;7.07;;;;;;;;;;5103521;28;20625;-81
2023/02/24 12:43:27;;;;;;;10.57;6.90;;;;;;;;;;5112204;28;20227;-81
2023/02/24 12:46:00;;;;;;;12.87;8.10;;;;;;;;;;5114137;28;20199;-81
2023/02/24 12:48:52;;;;;;;11.27;6.67;;;;;;;;;;5074008;28;20260;-80
2023/02/24 12:51:24;;;;;;;11.03;6.80;;;;;;;;;;5073005;28;20226;-81
2023/02/24 12:53:59;;;;;;;11.63;6.73;;;;;;;;;;5073874;28;20257;-81
2023/02/24 12:56:30;;;;;;;15.97;7.37;;;;;;;;;;5072853;28;20730;-81
2023/02/24 12:59:01;;;;;;;13.27;7.57;;;;;;;;;;5073551;28;20657;-81
2023/02/24 13:01:31;;;;;;;11.97;7.50;;;;;;;;;;5072687;28;20205;-81
2023/02/24 13:04:12;;;;;;;13.73;9.70;;;;;;;;;;5072115;28;20222;-81
2023/02/24 13:06:48;;;;;;;11.30;8.47;;;;;;;;;;5072803;28;20233;-81
2023/02/24 13:09:22;;;;;;;11.83;7.80;;;;;;;;;;5073141;28;20193;-85
2023/02/24 13:11:56;;;;;;;12.63;7.63;;;;;;;;;;5072471;28;20213;-81
2023/02/24 13:14:27;;;;;;;10.77;7.00;;;;;;;;;;5073355;28;20254;-81
2023/02/24 13:17:05;;;;;;;14.87;6.77;;;;;;;;;;5072741;28;20205;-81
2023/02/24 13:19:31;;;;;;;7.87;6.23;;;;;;;;;;5072915;28;20247;-81
2023/02/24 13:22:04;;;;;;;10.23;6.73;;;;;;;;;;5072442;28;20201;-81
2023/02/24 13:24:31;;;;;;;16.27;7.80;;;;;;;;;;5072714;28;20259;-80
2023/02/24 13:27:21;;;;;;;11.47;7.53;;;;;;;;;;5072510;28;20193;-81
2023/02/24 13:29:49;;;;;;;11.47;7.70;;;;;;;;;;5072704;28;20582;-81
2023/02/24 13:32:31;;;;;;;12.60;8.33;;;;;;;;;;5072881;28;20208;-81
2023/02/24 13:35:00;;;;;;;10.20;8.33;;;;;;;;;;5072809;28;20307;-81
2023/02/24 13:37:33;;;;;;;13.37;7.63;;;;;;;;;;5072122;28;20266;-81
2023/02/24 13:40:00;;;;;;;15.97;9.53;;;;;;;;;;5072291;28;20288;-81
2023/02/24 13:42:29;;;;;;;14.40;9.30;;;;;;;;;;5072700;28;20212;-81
2023/02/24 13:45:05;;;;;;;13.30;8.50;;;;;;;;;;5072110;28;20208;-82
2023/02/24 13:47:57;;;;;;;13.53;9.87;;;;;;;;;;5084972;28;20216;-81
2023/02/24 13:50:26;;;;;;;10.97;7.77;;;;;;;;;;5101866;28;20597;-80
2023/02/24 13:53:08;;;;;;;12.07;7.83;;;;;;;;;;5110304;28;20207;-82
2023/02/24 13:55:42;;;;;;;14.80;9.30;;;;;;;;;;5099487;28;20310;-81
2023/02/24 13:58:32;;;;;;;14.20;9.10;;;;;;;;;;5092641;28;20205;-81
2023/02/24 14:01:06;;;;;;;11.83;8.90;;;;;;;;;;5092017;28;20201;-81
2023/02/24 14:03:34;;;;;;;11.60;8.47;;;;;;;;;;5104703;28;20195;-81
2023/02/24 14:06:01;;;;;;;15.27;9.13;;;;;;;;;;5112071;28;20206;-81
2023/02/24 14:08:35;;;;;;;13.80;9.67;;;;;;;;;;5112687;28;20207;-81
2023/02/24 14:11:02;;;;;;;13.50;8.50;;;;;;;;;;5112280;28;20256;-81
2023/02/24 14:13:32;;;;;;;17.60;8.53;;;;;;;;;;5098801;28;20198;-81
2023/02/24 14:16:01;;;;;;;11.97;7.70;;;;;;;;;;5091813;28;20233;-81
2023/02/24 14:18:29;;;;;;;12.53;7.93;;;;;;;;;;5105588;28;20199;-81
2023/02/24 14:20:57;;;;;;;11.67;7.87;;;;;;;;;;5099303;28;20199;-82
2023/02/24 14:23:26;;;;;;;13.17;7.37;;;;;;;;;;5098705;28;20685;-81
2023/02/24 14:25:55;;;;;;;11.53;7.40;;;;;;;;;;5112038;28;20211;-81
2023/02/24 14:28:23;;;;;;;16.03;8.03;;;;;;;;;;5111749;28;20669;-82
2023/02/24 14:30:56;;;;;;;11.17;7.70;;;;;;;;;;5112454;28;20195;-81
2023/02/24 14:33:28;;;;;;;9.67;6.97;;;;;;;;;;5108993;28;20200;-81
2023/02/24 14:35:55;;;;;;;11.27;8.70;;;;;;;;;;5091473;28;20662;-81
2023/02/24 14:38:31;;;;;;;14.13;10.83;;;;;;;;;;5091842;28;20271;-82
2023/02/24 14:40:58;;;;;;;15.23;8.77;;;;;;;;;;5104118;28;20199;-81
2023/02/24 14:43:24;;;;;;;10.70;7.63;;;;;;;;;;5093109;28;20211;-81
2023/02/24 14:45:56;;;;;;;14.73;9.03;;;;;;;;;;5091546;28;20259;-81
2023/02/24 14:48:24;;;;;;;11.87;8.03;;;;;;;;;;5091944;28;20307;-81
2023/02/24 14:50:52;;;;;;;14.83;8.73;;;;;;;;;;5105043;28;20224;-81
2023/02/24 14:53:21;;;;;;;13.87;9.27;;;;;;;;;;5091289;28;20683;-81
2023/02/24 14:55:50;;;;;;;10.83;8.07;;;;;;;;;;5104560;28;20620;-81
2023/02/24 14:58:22;;;;;;;10.73;8.17;;;;;;;;;;5099408;28;20560;-81
2023/02/24 15:00:50;;;;;;;10.83;7.77;;;;;;;;;;5096564;28;20250;-81
2023/02/24 15:03:23;;;;;;;11.90;8.10;;;;;;;;;;5091934;28;20636;-81
2023/02/24 15:05:53;;;;;;;14.33;8.37;;;;;;;;;;5104912;28;20207;-81
2023/02/24 15:08:30;;;;;;;119.10;56.87;;;;;;;;;;5090809;28;20681;-82
2023/02/24 15:10:57;;;;;;;26.30;15.20;;;;;;;;;;5104303;28;20207;-83
2023/02/24 15:13:29;;;;;;;56.63;32.47;;;;;;;;;;5103273;28;20573;-81
2023/02/24 15:15:56;;;;;;;22.70;16.30;;;;;;;;;;5097740;28;20572;-81
2023/02/24 15:18:27;;;;;;;27.50;15.67;;;;;;;;;;5111509;28;20733;-81